createdAt,value
2023-02-11T00:02:05.348Z,-6.51
2023-02-11T00:04:32.146Z,-6.29
2023-02-11T00:06:58.619Z,-6.47
2023-02-11T00:09:24.997Z,-6.41
2023-02-11T00:11:51.385Z,-6.52
2023-02-11T00:14:17.763Z,-6.39
2023-02-11T00:16:44.333Z,-6.45
2023-02-11T00:19:10.732Z,-6.64
2023-02-11T00:21:37.094Z,-6.73
2023-02-11T00:24:04.020Z,-6.57
2023-02-11T00:26:35.206Z,-6.54
2023-02-11T00:29:02.511Z,-6.70
2023-02-11T00:31:29.247Z,-6.56
2023-02-11T00:33:56.821Z,-6.56
2023-02-11T00:36:25.820Z,-6.80
2023-02-11T00:38:54.722Z,-6.67
2023-02-11T00:41:22.173Z,-6.80
2023-02-11T00:43:49.043Z,-7.14
2023-02-11T00:46:15.714Z,-6.89
2023-02-11T00:48:42.135Z,-6.77
2023-02-11T00:51:08.777Z,-6.94
2023-02-11T00:53:35.683Z,-6.68
2023-02-11T00:56:02.536Z,-6.98
2023-02-11T00:58:29.124Z,-6.90
2023-02-11T01:00:55.904Z,-6.75
2023-02-11T01:03:22.459Z,-6.78
2023-02-11T01:05:49.292Z,-6.87
2023-02-11T01:08:15.788Z,-6.98
2023-02-11T01:10:43.908Z,-6.95
2023-02-11T01:13:10.492Z,-6.97
2023-02-11T01:15:36.887Z,-7.01
2023-02-11T01:18:05.637Z,-7.13
2023-02-11T01:20:32.119Z,-6.94
2023-02-11T01:22:58.536Z,-7.02
2023-02-11T01:25:24.940Z,-7.22
2023-02-11T01:27:51.319Z,-7.15
2023-02-11T01:30:17.729Z,-7.19
2023-02-11T01:32:44.121Z,-7.27
2023-02-11T01:35:10.651Z,-7.30
2023-02-11T01:37:37.180Z,-7.36
2023-02-11T01:40:06.595Z,-7.30
2023-02-11T01:42:33.332Z,-7.16
2023-02-11T01:45:01.895Z,-7.25
2023-02-11T01:47:28.296Z,-7.41
2023-02-11T01:50:01.526Z,-7.44
2023-02-11T01:52:34.967Z,-7.29
2023-02-11T01:55:27.021Z,-7.25
2023-02-11T01:57:56.955Z,-6.98
2023-02-11T02:00:36.219Z,-7.20
2023-02-11T02:03:33.984Z,-7.05
2023-02-11T02:06:10.808Z,-7.08
2023-02-11T02:08:53.721Z,-7.18
2023-02-11T02:11:20.137Z,-7.29
2023-02-11T02:13:46.796Z,-7.16
2023-02-11T02:16:16.137Z,-7.15
2023-02-11T02:19:19.260Z,-7.15
2023-02-11T02:21:51.885Z,-7.15
2023-02-11T02:24:39.697Z,-7.17
2023-02-11T02:27:25.265Z,-7.19
2023-02-11T02:30:03.354Z,-7.16
2023-02-11T02:32:53.304Z,-7.38
2023-02-11T02:35:34.906Z,-7.39
2023-02-11T02:38:11.809Z,-7.34
2023-02-11T02:40:48.660Z,-7.27
2023-02-11T02:43:15.678Z,-7.25
2023-02-11T02:45:42.170Z,-7.30
2023-02-11T02:48:32.952Z,-7.60
2023-02-11T02:51:17.649Z,-7.32
2023-02-11T02:54:02.793Z,-7.25
2023-02-11T02:56:50.185Z,-7.24
2023-02-11T02:59:38.713Z,-7.25
2023-02-11T03:02:37.091Z,-7.53
2023-02-11T03:05:15.286Z,-7.53
2023-02-11T03:08:00.007Z,-7.43
2023-02-11T03:10:31.051Z,-7.36
2023-02-11T03:12:58.292Z,-7.74
2023-02-11T03:15:27.492Z,-7.30
2023-02-11T03:17:58.219Z,-7.45
2023-02-11T03:20:25.523Z,-7.50
2023-02-11T03:22:58.753Z,-7.56
2023-02-11T03:25:37.038Z,-7.36
2023-02-11T03:28:26.812Z,-7.43
2023-02-11T03:31:10.555Z,-7.49
2023-02-11T03:33:48.341Z,-7.37
2023-02-11T03:36:24.233Z,-7.51
2023-02-11T03:38:52.828Z,-7.42
2023-02-11T03:41:23.232Z,-7.45
2023-02-11T03:43:54.268Z,-7.43
2023-02-11T03:46:25.298Z,-7.49
2023-02-11T03:48:56.309Z,-7.47
2023-02-11T03:51:25.642Z,-7.65
2023-02-11T03:53:56.878Z,-7.39
2023-02-11T03:56:27.594Z,-7.43
2023-02-11T03:58:54.017Z,-7.56
2023-02-11T04:01:20.645Z,-7.65
2023-02-11T04:03:47.036Z,-7.56
2023-02-11T04:06:13.434Z,-7.47
2023-02-11T04:08:39.899Z,-7.64
2023-02-11T04:11:06.433Z,-7.49
2023-02-11T04:13:33.011Z,-7.70
2023-02-11T04:15:59.442Z,-7.54
2023-02-11T04:18:25.876Z,-7.77
2023-02-11T04:20:52.287Z,-7.76
2023-02-11T04:23:18.731Z,-7.65
2023-02-11T04:25:45.110Z,-7.46
2023-02-11T04:28:11.510Z,-7.66
2023-02-11T04:30:37.948Z,-7.76
2023-02-11T04:33:04.366Z,-7.57
2023-02-11T04:35:30.761Z,-7.38
2023-02-11T04:37:57.428Z,-7.45
2023-02-11T04:40:23.903Z,-7.56
2023-02-11T04:42:50.305Z,-7.58
2023-02-11T04:45:16.794Z,-7.56
2023-02-11T04:47:43.229Z,-7.56
2023-02-11T04:50:09.960Z,-7.34
2023-02-11T04:52:36.343Z,-7.47
2023-02-11T04:55:02.971Z,-7.17
2023-02-11T04:57:29.516Z,-7.20
2023-02-11T04:59:55.988Z,-7.17
2023-02-11T05:02:22.373Z,-7.11
2023-02-11T05:04:48.732Z,-7.11
2023-02-11T05:07:15.112Z,-7.33
2023-02-11T05:09:41.630Z,-7.16
2023-02-11T05:12:08.450Z,-7.22
2023-02-11T05:14:34.828Z,-7.22
2023-02-11T05:17:01.328Z,-7.23
2023-02-11T05:19:27.944Z,-7.02
2023-02-11T05:22:02.637Z,-6.85
2023-02-11T05:24:31.651Z,-6.83
2023-02-11T05:26:58.023Z,-6.89
2023-02-11T05:29:24.405Z,-6.80
2023-02-11T05:31:50.764Z,-6.81
2023-02-11T05:34:17.139Z,-6.95
2023-02-11T05:36:43.529Z,-7.01
2023-02-11T05:39:09.930Z,-7.06
2023-02-11T05:41:36.399Z,-6.67
2023-02-11T05:44:02.801Z,-6.84
2023-02-11T05:46:29.223Z,-6.54
2023-02-11T05:48:56.826Z,-6.70
2023-02-11T05:51:25.218Z,-6.25
2023-02-11T05:53:51.658Z,-6.32
2023-02-11T05:56:18.083Z,-6.37
2023-02-11T05:58:44.461Z,-6.36
2023-02-11T06:01:10.868Z,-6.62
2023-02-11T06:03:37.423Z,-6.47
2023-02-11T06:06:04.154Z,-6.27
2023-02-11T06:08:30.555Z,-6.43
2023-02-11T06:10:56.921Z,-6.50
2023-02-11T06:13:23.319Z,-6.29
2023-02-11T06:15:57.439Z,-6.28
2023-02-11T06:18:24.032Z,-6.10
2023-02-11T06:20:50.431Z,-6.15
2023-02-11T06:23:16.829Z,-5.96
2023-02-11T06:25:43.231Z,-5.93
2023-02-11T06:28:10.671Z,-5.74
2023-02-11T06:30:38.059Z,-6.00
2023-02-11T06:33:04.840Z,-5.66
2023-02-11T06:35:31.316Z,-5.44
2023-02-11T06:38:05.531Z,-5.53
2023-02-11T06:40:31.914Z,-5.57
2023-02-11T06:42:58.284Z,-5.32
2023-02-11T06:45:24.709Z,-5.30
2023-02-11T06:47:52.737Z,-5.05
2023-02-11T06:50:29.188Z,-5.12
2023-02-11T06:52:55.559Z,-5.26
2023-02-11T06:55:21.993Z,-5.18
2023-02-11T06:57:48.366Z,-5.41
2023-02-11T07:00:15.123Z,-5.09
2023-02-11T07:02:41.644Z,-5.09
2023-02-11T07:05:08.656Z,-5.07
2023-02-11T07:07:35.704Z,-5.00
2023-02-11T07:10:05.824Z,-4.83
2023-02-11T07:12:32.257Z,-4.96
2023-02-11T07:14:58.858Z,-4.95
2023-02-11T07:17:25.271Z,-5.15
2023-02-11T07:19:52.688Z,-4.87
2023-02-11T07:22:19.548Z,-4.64
2023-02-11T07:24:46.412Z,-4.79
2023-02-11T07:27:23.129Z,-4.86
2023-02-11T07:29:49.524Z,-4.76
2023-02-11T07:32:15.992Z,-4.78
2023-02-11T07:34:55.807Z,-4.52
2023-02-11T07:37:22.201Z,-4.68
2023-02-11T07:39:48.570Z,-4.46
2023-02-11T07:42:14.931Z,-4.44
2023-02-11T07:44:41.413Z,-4.49
2023-02-11T07:47:07.880Z,-4.43
2023-02-11T07:49:34.311Z,-4.19
2023-02-11T07:52:00.711Z,-4.13
2023-02-11T07:54:27.083Z,-4.28
2023-02-11T07:57:01.689Z,-4.03
2023-02-11T07:59:28.073Z,-3.97
2023-02-11T08:01:54.548Z,-3.83
2023-02-11T08:04:21.013Z,-3.63
2023-02-11T08:06:47.429Z,-3.64
2023-02-11T08:09:16.933Z,-3.41
2023-02-11T08:11:50.512Z,-3.36
2023-02-11T08:14:16.952Z,-3.51
2023-02-11T08:16:43.484Z,-3.53
2023-02-11T08:19:15.526Z,-3.48
2023-02-11T08:21:57.460Z,-3.37
2023-02-11T08:24:24.009Z,-3.58
2023-02-11T08:26:50.410Z,-3.45
2023-02-11T08:29:17.868Z,-3.34
2023-02-11T08:31:46.843Z,-3.38
2023-02-11T08:34:20.392Z,-3.27
2023-02-11T08:36:48.777Z,-2.75
2023-02-11T08:39:20.223Z,-2.62
2023-02-11T08:41:48.991Z,-2.46
2023-02-11T08:44:15.936Z,-2.76
2023-02-11T08:46:42.332Z,-2.45
2023-02-11T08:49:08.707Z,-2.58
2023-02-11T08:51:35.200Z,-2.09
2023-02-11T08:54:01.653Z,-2.04
2023-02-11T08:56:28.498Z,-1.77
2023-02-11T08:58:55.167Z,-1.51
2023-02-11T09:01:28.409Z,-1.25
2023-02-11T09:03:55.239Z,-1.53
2023-02-11T09:06:22.546Z,-1.23
2023-02-11T09:08:51.624Z,-1.51
2023-02-11T09:11:21.645Z,-1.30
2023-02-11T09:13:48.226Z,-1.52
2023-02-11T09:16:17.799Z,-1.16
2023-02-11T09:18:45.587Z,-1.14
2023-02-11T09:21:12.834Z,-0.94
2023-02-11T09:23:41.709Z,-0.99
2023-02-11T09:26:10.629Z,-0.97
2023-02-11T09:28:37.088Z,-0.69
2023-02-11T09:31:08.527Z,-0.52
2023-02-11T09:33:35.486Z,-0.49
2023-02-11T09:36:06.096Z,-0.20
2023-02-11T09:38:32.917Z,-0.30
2023-02-11T09:40:59.570Z,-0.09
2023-02-11T09:43:53.720Z,0.35
2023-02-11T09:46:21.869Z,0.22
2023-02-11T09:48:50.698Z,0.35
2023-02-11T09:51:44.775Z,0.56
2023-02-11T09:54:18.281Z,0.69
2023-02-11T09:56:44.650Z,0.94
2023-02-11T09:59:15.390Z,0.85
